sensor_id;sensor_type;location;lat;lon;timestamp;P1;durP1;ratioP1;P2;durP2;ratioP2
74551;SDS011;63025;55.472;38.432;2022-12-29T00:01:09;13.45;;;6.88;;
74551;SDS011;63025;55.472;38.432;2022-12-29T00:03:35;15.95;;;7.60;;
74551;SDS011;63025;55.472;38.432;2022-12-29T00:06:00;13.77;;;7.18;;
74551;SDS011;63025;55.472;38.432;2022-12-29T00:08:27;13.32;;;6.70;;
74551;SDS011;63025;55.472;38.432;2022-12-29T00:11:08;14.90;;;7.47;;
74551;SDS011;63025;55.472;38.432;2022-12-29T00:13:35;13.13;;;6.78;;
74551;SDS011;63025;55.472;38.432;2022-12-29T00:16:20;15.23;;;7.15;;
74551;SDS011;63025;55.472;38.432;2022-12-29T00:18:46;15.02;;;7.78;;
74551;SDS011;63025;55.472;38.432;2022-12-29T00:21:15;14.30;;;6.93;;
74551;SDS011;63025;55.472;38.432;2022-12-29T00:24:01;15.60;;;7.45;;
74551;SDS011;63025;55.472;38.432;2022-12-29T00:29:46;12.38;;;7.22;;
74551;SDS011;63025;55.472;38.432;2022-12-29T00:32:31;15.35;;;7.15;;
74551;SDS011;63025;55.472;38.432;2022-12-29T00:35:23;12.77;;;6.50;;
74551;SDS011;63025;55.472;38.432;2022-12-29T00:37:50;12.50;;;6.72;;
74551;SDS011;63025;55.472;38.432;2022-12-29T00:40:36;13.02;;;6.90;;
74551;SDS011;63025;55.472;38.432;2022-12-29T00:43:20;13.02;;;6.68;;
74551;SDS011;63025;55.472;38.432;2022-12-29T00:46:04;11.40;;;6.53;;
74551;SDS011;63025;55.472;38.432;2022-12-29T00:48:30;14.35;;;6.97;;
74551;SDS011;63025;55.472;38.432;2022-12-29T00:51:14;12.48;;;6.07;;
74551;SDS011;63025;55.472;38.432;2022-12-29T00:53:40;12.30;;;6.30;;
74551;SDS011;63025;55.472;38.432;2022-12-29T00:56:06;12.55;;;6.50;;
74551;SDS011;63025;55.472;38.432;2022-12-29T00:58:32;11.63;;;6.07;;
74551;SDS011;63025;55.472;38.432;2022-12-29T01:01:04;10.45;;;5.32;;
74551;SDS011;63025;55.472;38.432;2022-12-29T01:03:32;9.88;;;5.18;;
74551;SDS011;63025;55.472;38.432;2022-12-29T01:06:02;10.95;;;5.18;;
74551;SDS011;63025;55.472;38.432;2022-12-29T01:08:30;10.48;;;5.05;;
74551;SDS011;63025;55.472;38.432;2022-12-29T01:11:09;9.50;;;4.82;;
74551;SDS011;63025;55.472;38.432;2022-12-29T01:13:37;11.32;;;5.10;;
74551;SDS011;63025;55.472;38.432;2022-12-29T01:16:04;11.75;;;4.38;;
74551;SDS011;63025;55.472;38.432;2022-12-29T01:18:31;12.82;;;5.10;;
74551;SDS011;63025;55.472;38.432;2022-12-29T01:21:02;8.52;;;4.47;;
74551;SDS011;63025;55.472;38.432;2022-12-29T01:23:29;10.27;;;4.53;;
74551;SDS011;63025;55.472;38.432;2022-12-29T01:25:56;8.02;;;4.57;;
74551;SDS011;63025;55.472;38.432;2022-12-29T01:28:23;8.98;;;4.22;;
74551;SDS011;63025;55.472;38.432;2022-12-29T01:30:49;7.72;;;4.20;;
74551;SDS011;63025;55.472;38.432;2022-12-29T01:33:15;8.15;;;4.07;;
74551;SDS011;63025;55.472;38.432;2022-12-29T01:35:40;8.73;;;3.72;;
74551;SDS011;63025;55.472;38.432;2022-12-29T01:38:06;8.95;;;3.70;;
74551;SDS011;63025;55.472;38.432;2022-12-29T01:40:33;11.10;;;3.40;;
74551;SDS011;63025;55.472;38.432;2022-12-29T01:42:59;9.85;;;3.35;;
74551;SDS011;63025;55.472;38.432;2022-12-29T01:45:25;8.25;;;3.38;;
74551;SDS011;63025;55.472;38.432;2022-12-29T01:47:58;7.68;;;3.30;;
74551;SDS011;63025;55.472;38.432;2022-12-29T01:50:31;9.88;;;3.22;;
74551;SDS011;63025;55.472;38.432;2022-12-29T01:53:03;6.28;;;2.78;;
74551;SDS011;63025;55.472;38.432;2022-12-29T01:55:31;7.75;;;2.83;;
74551;SDS011;63025;55.472;38.432;2022-12-29T01:58:00;6.28;;;2.85;;
74551;SDS011;63025;55.472;38.432;2022-12-29T02:00:30;6.75;;;2.80;;
74551;SDS011;63025;55.472;38.432;2022-12-29T02:02:56;6.35;;;2.75;;
74551;SDS011;63025;55.472;38.432;2022-12-29T02:08:12;6.60;;;2.40;;
74551;SDS011;63025;55.472;38.432;2022-12-29T02:10:39;6.45;;;2.80;;
74551;SDS011;63025;55.472;38.432;2022-12-29T02:13:07;5.90;;;2.70;;
74551;SDS011;63025;55.472;38.432;2022-12-29T02:21:59;6.30;;;2.60;;
74551;SDS011;63025;55.472;38.432;2022-12-29T02:41:16;5.38;;;2.50;;
74551;SDS011;63025;55.472;38.432;2022-12-29T02:49:15;5.88;;;2.53;;
74551;SDS011;63025;55.472;38.432;2022-12-29T02:51:50;7.45;;;2.78;;
74551;SDS011;63025;55.472;38.432;2022-12-29T02:54:22;6.78;;;2.45;;
74551;SDS011;63025;55.472;38.432;2022-12-29T02:59:37;7.60;;;2.35;;
74551;SDS011;63025;55.472;38.432;2022-12-29T03:16:01;6.72;;;2.83;;
74551;SDS011;63025;55.472;38.432;2022-12-29T03:24:15;8.52;;;2.88;;
74551;SDS011;63025;55.472;38.432;2022-12-29T03:26:45;6.95;;;2.65;;
74551;SDS011;63025;55.472;38.432;2022-12-29T03:32:03;7.18;;;2.50;;
74551;SDS011;63025;55.472;38.432;2022-12-29T03:34:32;6.28;;;2.75;;
74551;SDS011;63025;55.472;38.432;2022-12-29T03:37:20;5.93;;;2.85;;
74551;SDS011;63025;55.472;38.432;2022-12-29T03:39:51;7.97;;;2.92;;
74551;SDS011;63025;55.472;38.432;2022-12-29T03:42:22;10.45;;;3.00;;
74551;SDS011;63025;55.472;38.432;2022-12-29T03:44:53;7.50;;;3.03;;
74551;SDS011;63025;55.472;38.432;2022-12-29T03:47:21;9.10;;;3.40;;
74551;SDS011;63025;55.472;38.432;2022-12-29T03:49:49;6.88;;;2.83;;
74551;SDS011;63025;55.472;38.432;2022-12-29T03:52:16;7.82;;;2.90;;
74551;SDS011;63025;55.472;38.432;2022-12-29T03:54:43;9.98;;;3.10;;
74551;SDS011;63025;55.472;38.432;2022-12-29T03:57:10;7.47;;;2.92;;
74551;SDS011;63025;55.472;38.432;2022-12-29T03:59:57;6.90;;;3.17;;
74551;SDS011;63025;55.472;38.432;2022-12-29T04:02:23;8.65;;;3.03;;
74551;SDS011;63025;55.472;38.432;2022-12-29T04:04:49;8.48;;;3.20;;
74551;SDS011;63025;55.472;38.432;2022-12-29T04:07:33;8.40;;;2.95;;
74551;SDS011;63025;55.472;38.432;2022-12-29T04:10:02;8.18;;;3.00;;
74551;SDS011;63025;55.472;38.432;2022-12-29T04:12:30;10.50;;;2.95;;
74551;SDS011;63025;55.472;38.432;2022-12-29T04:14:55;8.37;;;3.10;;
74551;SDS011;63025;55.472;38.432;2022-12-29T04:17:21;9.98;;;3.13;;
74551;SDS011;63025;55.472;38.432;2022-12-29T04:19:49;7.30;;;3.28;;
74551;SDS011;63025;55.472;38.432;2022-12-29T04:22:16;6.57;;;2.90;;
74551;SDS011;63025;55.472;38.432;2022-12-29T04:24:42;9.35;;;2.97;;
74551;SDS011;63025;55.472;38.432;2022-12-29T04:27:10;10.23;;;3.45;;
74551;SDS011;63025;55.472;38.432;2022-12-29T04:30:12;9.63;;;3.60;;
74551;SDS011;63025;55.472;38.432;2022-12-29T04:32:47;9.50;;;3.25;;
74551;SDS011;63025;55.472;38.432;2022-12-29T04:35:13;11.02;;;3.13;;
74551;SDS011;63025;55.472;38.432;2022-12-29T04:37:39;7.28;;;3.33;;
74551;SDS011;63025;55.472;38.432;2022-12-29T04:40:06;8.00;;;3.15;;
74551;SDS011;63025;55.472;38.432;2022-12-29T04:42:50;9.48;;;4.18;;
74551;SDS011;63025;55.472;38.432;2022-12-29T04:45:17;10.13;;;4.43;;
74551;SDS011;63025;55.472;38.432;2022-12-29T04:47:58;11.30;;;4.50;;
74551;SDS011;63025;55.472;38.432;2022-12-29T04:50:41;11.98;;;4.35;;
74551;SDS011;63025;55.472;38.432;2022-12-29T04:53:16;10.48;;;3.88;;
74551;SDS011;63025;55.472;38.432;2022-12-29T04:55:43;13.80;;;3.78;;
74551;SDS011;63025;55.472;38.432;2022-12-29T04:58:09;10.48;;;4.18;;
74551;SDS011;63025;55.472;38.432;2022-12-29T05:00:36;14.05;;;4.35;;
74551;SDS011;63025;55.472;38.432;2022-12-29T05:03:02;11.45;;;4.30;;
74551;SDS011;63025;55.472;38.432;2022-12-29T05:05:29;13.23;;;4.40;;
74551;SDS011;63025;55.472;38.432;2022-12-29T05:07:59;12.20;;;4.90;;
74551;SDS011;63025;55.472;38.432;2022-12-29T05:10:26;10.25;;;4.28;;
74551;SDS011;63025;55.472;38.432;2022-12-29T05:12:55;13.13;;;4.30;;
74551;SDS011;63025;55.472;38.432;2022-12-29T05:15:22;10.05;;;4.00;;
74551;SDS011;63025;55.472;38.432;2022-12-29T05:17:48;11.95;;;3.80;;
74551;SDS011;63025;55.472;38.432;2022-12-29T05:20:14;10.05;;;4.43;;
74551;SDS011;63025;55.472;38.432;2022-12-29T05:22:41;14.23;;;4.28;;
74551;SDS011;63025;55.472;38.432;2022-12-29T05:25:07;8.90;;;4.13;;
74551;SDS011;63025;55.472;38.432;2022-12-29T05:27:44;11.73;;;4.60;;
74551;SDS011;63025;55.472;38.432;2022-12-29T05:30:39;13.65;;;4.40;;
74551;SDS011;63025;55.472;38.432;2022-12-29T05:33:05;8.77;;;4.55;;
74551;SDS011;63025;55.472;38.432;2022-12-29T05:35:33;16.38;;;5.63;;
74551;SDS011;63025;55.472;38.432;2022-12-29T05:37:59;15.85;;;5.53;;
74551;SDS011;63025;55.472;38.432;2022-12-29T05:40:25;10.57;;;5.15;;
74551;SDS011;63025;55.472;38.432;2022-12-29T05:42:55;12.13;;;5.65;;
74551;SDS011;63025;55.472;38.432;2022-12-29T05:45:43;14.73;;;6.32;;
74551;SDS011;63025;55.472;38.432;2022-12-29T05:48:31;15.55;;;6.40;;
74551;SDS011;63025;55.472;38.432;2022-12-29T05:51:16;18.10;;;6.18;;
74551;SDS011;63025;55.472;38.432;2022-12-29T05:53:52;12.80;;;6.15;;
74551;SDS011;63025;55.472;38.432;2022-12-29T05:56:18;13.02;;;5.88;;
74551;SDS011;63025;55.472;38.432;2022-12-29T05:58:51;18.38;;;6.50;;
74551;SDS011;63025;55.472;38.432;2022-12-29T06:01:17;13.82;;;6.15;;
74551;SDS011;63025;55.472;38.432;2022-12-29T06:03:43;13.07;;;6.18;;
74551;SDS011;63025;55.472;38.432;2022-12-29T06:06:11;12.40;;;6.07;;
74551;SDS011;63025;55.472;38.432;2022-12-29T06:08:37;15.23;;;6.63;;
74551;SDS011;63025;55.472;38.432;2022-12-29T06:11:03;13.55;;;5.75;;
74551;SDS011;63025;55.472;38.432;2022-12-29T06:13:52;15.40;;;6.00;;
74551;SDS011;63025;55.472;38.432;2022-12-29T06:16:18;15.18;;;6.25;;
74551;SDS011;63025;55.472;38.432;2022-12-29T06:18:44;16.55;;;6.38;;
74551;SDS011;63025;55.472;38.432;2022-12-29T06:21:10;13.57;;;6.00;;
74551;SDS011;63025;55.472;38.432;2022-12-29T06:23:36;14.18;;;6.13;;
74551;SDS011;63025;55.472;38.432;2022-12-29T06:26:03;16.48;;;5.57;;
74551;SDS011;63025;55.472;38.432;2022-12-29T06:28:29;12.02;;;5.60;;
74551;SDS011;63025;55.472;38.432;2022-12-29T06:30:55;10.65;;;5.38;;
74551;SDS011;63025;55.472;38.432;2022-12-29T06:33:21;13.40;;;5.68;;
74551;SDS011;63025;55.472;38.432;2022-12-29T06:35:46;11.80;;;5.40;;
74551;SDS011;63025;55.472;38.432;2022-12-29T06:38:13;15.32;;;5.53;;
74551;SDS011;63025;55.472;38.432;2022-12-29T06:40:39;14.82;;;6.30;;
74551;SDS011;63025;55.472;38.432;2022-12-29T06:43:42;16.15;;;6.07;;
74551;SDS011;63025;55.472;38.432;2022-12-29T06:46:20;11.65;;;5.55;;
74551;SDS011;63025;55.472;38.432;2022-12-29T06:48:45;11.07;;;5.40;;
74551;SDS011;63025;55.472;38.432;2022-12-29T06:51:11;14.77;;;5.43;;
74551;SDS011;63025;55.472;38.432;2022-12-29T06:53:37;14.10;;;5.63;;
74551;SDS011;63025;55.472;38.432;2022-12-29T06:56:03;13.65;;;5.70;;
74551;SDS011;63025;55.472;38.432;2022-12-29T06:58:29;12.63;;;5.72;;
74551;SDS011;63025;55.472;38.432;2022-12-29T07:00:56;15.52;;;5.60;;
74551;SDS011;63025;55.472;38.432;2022-12-29T07:03:21;11.32;;;5.40;;
74551;SDS011;63025;55.472;38.432;2022-12-29T07:05:47;17.65;;;5.57;;
74551;SDS011;63025;55.472;38.432;2022-12-29T07:08:13;16.48;;;5.95;;
74551;SDS011;63025;55.472;38.432;2022-12-29T07:10:39;10.82;;;5.50;;
74551;SDS011;63025;55.472;38.432;2022-12-29T07:13:04;13.68;;;5.65;;
74551;SDS011;63025;55.472;38.432;2022-12-29T07:15:33;12.70;;;5.28;;
74551;SDS011;63025;55.472;38.432;2022-12-29T07:18:17;14.00;;;5.97;;
74551;SDS011;63025;55.472;38.432;2022-12-29T07:20:43;12.77;;;5.20;;
74551;SDS011;63025;55.472;38.432;2022-12-29T07:23:09;15.35;;;5.85;;
74551;SDS011;63025;55.472;38.432;2022-12-29T07:25:50;11.75;;;5.38;;
74551;SDS011;63025;55.472;38.432;2022-12-29T07:28:42;17.92;;;5.43;;
74551;SDS011;63025;55.472;38.432;2022-12-29T07:31:12;10.45;;;5.05;;
74551;SDS011;63025;55.472;38.432;2022-12-29T07:33:40;10.60;;;4.50;;
74551;SDS011;63025;55.472;38.432;2022-12-29T07:36:06;11.75;;;5.50;;
74551;SDS011;63025;55.472;38.432;2022-12-29T07:38:32;10.95;;;5.50;;
74551;SDS011;63025;55.472;38.432;2022-12-29T07:40:58;8.43;;;4.88;;
74551;SDS011;63025;55.472;38.432;2022-12-29T07:43:24;9.35;;;5.25;;
74551;SDS011;63025;55.472;38.432;2022-12-29T07:46:09;9.82;;;4.68;;
74551;SDS011;63025;55.472;38.432;2022-12-29T07:48:35;8.50;;;4.65;;
74551;SDS011;63025;55.472;38.432;2022-12-29T07:51:01;13.75;;;5.60;;
74551;SDS011;63025;55.472;38.432;2022-12-29T07:53:27;12.25;;;5.05;;
74551;SDS011;63025;55.472;38.432;2022-12-29T07:55:52;9.40;;;4.93;;
74551;SDS011;63025;55.472;38.432;2022-12-29T07:58:18;11.50;;;4.88;;
74551;SDS011;63025;55.472;38.432;2022-12-29T08:00:44;11.25;;;5.45;;
74551;SDS011;63025;55.472;38.432;2022-12-29T08:03:10;12.30;;;4.85;;
74551;SDS011;63025;55.472;38.432;2022-12-29T08:05:35;11.00;;;4.70;;
74551;SDS011;63025;55.472;38.432;2022-12-29T08:08:01;9.23;;;4.45;;
74551;SDS011;63025;55.472;38.432;2022-12-29T08:10:27;11.25;;;4.80;;
74551;SDS011;63025;55.472;38.432;2022-12-29T08:12:53;11.75;;;4.72;;
74551;SDS011;63025;55.472;38.432;2022-12-29T08:15:19;9.55;;;4.82;;
74551;SDS011;63025;55.472;38.432;2022-12-29T08:18:03;9.07;;;3.80;;
74551;SDS011;63025;55.472;38.432;2022-12-29T08:20:29;8.50;;;3.63;;
74551;SDS011;63025;55.472;38.432;2022-12-29T08:22:55;11.48;;;3.90;;
74551;SDS011;63025;55.472;38.432;2022-12-29T08:25:21;11.70;;;4.15;;
74551;SDS011;63025;55.472;38.432;2022-12-29T08:27:47;8.98;;;4.15;;
74551;SDS011;63025;55.472;38.432;2022-12-29T08:30:12;9.80;;;4.75;;
74551;SDS011;63025;55.472;38.432;2022-12-29T08:32:38;10.05;;;4.18;;
74551;SDS011;63025;55.472;38.432;2022-12-29T08:35:04;10.10;;;4.57;;
74551;SDS011;63025;55.472;38.432;2022-12-29T08:37:32;8.50;;;4.13;;
74551;SDS011;63025;55.472;38.432;2022-12-29T08:39:58;12.05;;;4.20;;
74551;SDS011;63025;55.472;38.432;2022-12-29T08:42:25;12.60;;;5.28;;
74551;SDS011;63025;55.472;38.432;2022-12-29T08:44:56;10.27;;;4.43;;
74551;SDS011;63025;55.472;38.432;2022-12-29T08:47:23;11.00;;;4.80;;
74551;SDS011;63025;55.472;38.432;2022-12-29T08:49:49;11.20;;;4.18;;
74551;SDS011;63025;55.472;38.432;2022-12-29T08:52:15;9.77;;;4.05;;
74551;SDS011;63025;55.472;38.432;2022-12-29T08:54:40;10.10;;;5.30;;
74551;SDS011;63025;55.472;38.432;2022-12-29T08:57:06;9.38;;;4.07;;
74551;SDS011;63025;55.472;38.432;2022-12-29T08:59:38;9.80;;;4.57;;
74551;SDS011;63025;55.472;38.432;2022-12-29T09:02:03;12.02;;;5.18;;
74551;SDS011;63025;55.472;38.432;2022-12-29T09:04:29;10.38;;;4.75;;
74551;SDS011;63025;55.472;38.432;2022-12-29T09:06:55;8.85;;;4.47;;
74551;SDS011;63025;55.472;38.432;2022-12-29T09:09:21;8.43;;;3.50;;
74551;SDS011;63025;55.472;38.432;2022-12-29T09:11:47;10.60;;;3.90;;
74551;SDS011;63025;55.472;38.432;2022-12-29T09:14:13;7.80;;;3.80;;
74551;SDS011;63025;55.472;38.432;2022-12-29T09:16:39;10.73;;;4.05;;
74551;SDS011;63025;55.472;38.432;2022-12-29T09:19:24;12.65;;;3.60;;
74551;SDS011;63025;55.472;38.432;2022-12-29T09:21:50;7.32;;;3.72;;
74551;SDS011;63025;55.472;38.432;2022-12-29T09:24:15;13.45;;;4.07;;
74551;SDS011;63025;55.472;38.432;2022-12-29T09:26:41;7.68;;;3.67;;
74551;SDS011;63025;55.472;38.432;2022-12-29T09:29:07;7.65;;;3.13;;
74551;SDS011;63025;55.472;38.432;2022-12-29T09:31:33;6.13;;;3.30;;
74551;SDS011;63025;55.472;38.432;2022-12-29T09:33:58;6.38;;;2.90;;
74551;SDS011;63025;55.472;38.432;2022-12-29T09:36:24;9.13;;;3.00;;
74551;SDS011;63025;55.472;38.432;2022-12-29T09:38:50;6.05;;;3.15;;
74551;SDS011;63025;55.472;38.432;2022-12-29T09:41:46;9.10;;;4.28;;
74551;SDS011;63025;55.472;38.432;2022-12-29T09:44:42;5.05;;;3.15;;
74551;SDS011;63025;55.472;38.432;2022-12-29T09:47:12;9.70;;;3.58;;
74551;SDS011;63025;55.472;38.432;2022-12-29T09:52:28;9.73;;;3.30;;
74551;SDS011;63025;55.472;38.432;2022-12-29T09:54:57;8.77;;;4.07;;
74551;SDS011;63025;55.472;38.432;2022-12-29T09:57:45;8.95;;;3.83;;
74551;SDS011;63025;55.472;38.432;2022-12-29T10:00:16;8.75;;;3.83;;
74551;SDS011;63025;55.472;38.432;2022-12-29T10:16:24;7.40;;;3.88;;
74551;SDS011;63025;55.472;38.432;2022-12-29T10:21:39;7.80;;;4.38;;
74551;SDS011;63025;55.472;38.432;2022-12-29T10:24:12;9.73;;;5.22;;
74551;SDS011;63025;55.472;38.432;2022-12-29T10:26:42;14.80;;;6.47;;
74551;SDS011;63025;55.472;38.432;2022-12-29T10:29:26;12.23;;;5.53;;
74551;SDS011;63025;55.472;38.432;2022-12-29T10:42:57;11.35;;;4.53;;
74551;SDS011;63025;55.472;38.432;2022-12-29T10:45:25;8.23;;;4.18;;
74551;SDS011;63025;55.472;38.432;2022-12-29T10:50:29;11.82;;;4.63;;
74551;SDS011;63025;55.472;38.432;2022-12-29T10:52:55;10.77;;;4.88;;
74551;SDS011;63025;55.472;38.432;2022-12-29T10:55:35;11.02;;;4.38;;
74551;SDS011;63025;55.472;38.432;2022-12-29T11:01:08;9.65;;;4.38;;
74551;SDS011;63025;55.472;38.432;2022-12-29T11:03:40;9.80;;;4.22;;
74551;SDS011;63025;55.472;38.432;2022-12-29T11:06:09;9.95;;;4.80;;
74551;SDS011;63025;55.472;38.432;2022-12-29T11:08:44;13.70;;;4.80;;
74551;SDS011;63025;55.472;38.432;2022-12-29T11:11:33;9.65;;;4.55;;
74551;SDS011;63025;55.472;38.432;2022-12-29T11:16:58;12.50;;;5.63;;
74551;SDS011;63025;55.472;38.432;2022-12-29T11:22:14;11.73;;;5.85;;
74551;SDS011;63025;55.472;38.432;2022-12-29T11:24:47;12.93;;;5.97;;
74551;SDS011;63025;55.472;38.432;2022-12-29T11:27:15;13.80;;;5.85;;
74551;SDS011;63025;55.472;38.432;2022-12-29T11:29:45;10.75;;;4.55;;
74551;SDS011;63025;55.472;38.432;2022-12-29T11:32:20;9.80;;;4.07;;
74551;SDS011;63025;55.472;38.432;2022-12-29T11:34:48;11.75;;;5.15;;
74551;SDS011;63025;55.472;38.432;2022-12-29T11:40:06;13.90;;;6.20;;
74551;SDS011;63025;55.472;38.432;2022-12-29T11:42:42;16.05;;;8.20;;
74551;SDS011;63025;55.472;38.432;2022-12-29T11:47:57;15.90;;;7.38;;
74551;SDS011;63025;55.472;38.432;2022-12-29T11:50:27;12.85;;;5.95;;
74551;SDS011;63025;55.472;38.432;2022-12-29T11:53:03;23.73;;;10.90;;
74551;SDS011;63025;55.472;38.432;2022-12-29T11:55:49;17.38;;;8.73;;
74551;SDS011;63025;55.472;38.432;2022-12-29T11:58:20;14.73;;;6.80;;
74551;SDS011;63025;55.472;38.432;2022-12-29T12:00:46;14.82;;;7.07;;
74551;SDS011;63025;55.472;38.432;2022-12-29T12:03:22;17.80;;;7.68;;
74551;SDS011;63025;55.472;38.432;2022-12-29T12:05:57;17.67;;;8.20;;
74551;SDS011;63025;55.472;38.432;2022-12-29T12:08:41;15.18;;;6.75;;
74551;SDS011;63025;55.472;38.432;2022-12-29T12:11:14;14.02;;;7.18;;
74551;SDS011;63025;55.472;38.432;2022-12-29T12:17:09;17.33;;;7.07;;
74551;SDS011;63025;55.472;38.432;2022-12-29T12:29:19;14.57;;;7.70;;
74551;SDS011;63025;55.472;38.432;2022-12-29T12:34:54;12.65;;;7.00;;
74551;SDS011;63025;55.472;38.432;2022-12-29T12:50:55;17.30;;;8.85;;
74551;SDS011;63025;55.472;38.432;2022-12-29T12:53:36;14.57;;;8.13;;
74551;SDS011;63025;55.472;38.432;2022-12-29T12:56:12;19.05;;;8.23;;
74551;SDS011;63025;55.472;38.432;2022-12-29T13:01:58;16.90;;;7.22;;
74551;SDS011;63025;55.472;38.432;2022-12-29T13:18:54;16.65;;;8.20;;
74551;SDS011;63025;55.472;38.432;2022-12-29T13:24:55;22.52;;;10.07;;
74551;SDS011;63025;55.472;38.432;2022-12-29T13:38:34;16.50;;;8.63;;
74551;SDS011;63025;55.472;38.432;2022-12-29T13:41:12;15.85;;;8.30;;
74551;SDS011;63025;55.472;38.432;2022-12-29T13:43:44;19.65;;;9.35;;
74551;SDS011;63025;55.472;38.432;2022-12-29T13:46:13;20.90;;;9.23;;
74551;SDS011;63025;55.472;38.432;2022-12-29T13:48:51;22.05;;;9.55;;
74551;SDS011;63025;55.472;38.432;2022-12-29T13:51:23;17.92;;;8.68;;
74551;SDS011;63025;55.472;38.432;2022-12-29T13:54:17;18.10;;;9.07;;
74551;SDS011;63025;55.472;38.432;2022-12-29T13:56:52;22.60;;;9.93;;
74551;SDS011;63025;55.472;38.432;2022-12-29T14:04:28;20.88;;;9.27;;
74551;SDS011;63025;55.472;38.432;2022-12-29T14:06:59;15.18;;;7.97;;
74551;SDS011;63025;55.472;38.432;2022-12-29T14:12:50;16.65;;;9.30;;
74551;SDS011;63025;55.472;38.432;2022-12-29T14:15:05;17.80;;;10.20;;
74551;SDS011;63025;55.472;38.432;2022-12-29T14:17:42;19.98;;;9.93;;
74551;SDS011;63025;55.472;38.432;2022-12-29T14:20:17;22.98;;;11.75;;
74551;SDS011;63025;55.472;38.432;2022-12-29T14:22:57;19.05;;;10.30;;
74551;SDS011;63025;55.472;38.432;2022-12-29T14:28:25;19.80;;;10.13;;
74551;SDS011;63025;55.472;38.432;2022-12-29T14:30:56;19.35;;;9.55;;
74551;SDS011;63025;55.472;38.432;2022-12-29T14:33:24;18.85;;;9.45;;
74551;SDS011;63025;55.472;38.432;2022-12-29T14:35:52;17.80;;;8.90;;
74551;SDS011;63025;55.472;38.432;2022-12-29T14:38:37;19.85;;;10.43;;
74551;SDS011;63025;55.472;38.432;2022-12-29T14:41:24;19.73;;;10.38;;
74551;SDS011;63025;55.472;38.432;2022-12-29T14:46:45;33.60;;;17.73;;
74551;SDS011;63025;55.472;38.432;2022-12-29T14:49:18;29.65;;;16.38;;
74551;SDS011;63025;55.472;38.432;2022-12-29T14:51:47;23.50;;;12.40;;
74551;SDS011;63025;55.472;38.432;2022-12-29T14:57:02;26.58;;;12.60;;
74551;SDS011;63025;55.472;38.432;2022-12-29T14:59:31;25.40;;;13.13;;
74551;SDS011;63025;55.472;38.432;2022-12-29T15:01:59;29.13;;;12.60;;
74551;SDS011;63025;55.472;38.432;2022-12-29T15:04:31;24.27;;;12.73;;
74551;SDS011;63025;55.472;38.432;2022-12-29T15:06:59;27.73;;;13.73;;
74551;SDS011;63025;55.472;38.432;2022-12-29T15:09:35;29.92;;;13.15;;
74551;SDS011;63025;55.472;38.432;2022-12-29T15:17:40;22.50;;;11.15;;
74551;SDS011;63025;55.472;38.432;2022-12-29T15:20:19;22.38;;;11.52;;
74551;SDS011;63025;55.472;38.432;2022-12-29T15:22:52;23.38;;;11.35;;
74551;SDS011;63025;55.472;38.432;2022-12-29T15:25:21;20.85;;;11.25;;
74551;SDS011;63025;55.472;38.432;2022-12-29T15:27:49;24.73;;;11.93;;
74551;SDS011;63025;55.472;38.432;2022-12-29T15:30:26;23.13;;;10.20;;
74551;SDS011;63025;55.472;38.432;2022-12-29T15:32:53;20.17;;;10.35;;
74551;SDS011;63025;55.472;38.432;2022-12-29T15:38:19;26.20;;;12.43;;
74551;SDS011;63025;55.472;38.432;2022-12-29T15:40:51;25.42;;;12.32;;
74551;SDS011;63025;55.472;38.432;2022-12-29T15:48:38;22.27;;;10.93;;
74551;SDS011;63025;55.472;38.432;2022-12-29T15:51:10;19.58;;;10.65;;
74551;SDS011;63025;55.472;38.432;2022-12-29T15:53:51;22.52;;;10.80;;
74551;SDS011;63025;55.472;38.432;2022-12-29T15:56:17;22.13;;;11.27;;
74551;SDS011;63025;55.472;38.432;2022-12-29T15:58:48;30.50;;;14.23;;
74551;SDS011;63025;55.472;38.432;2022-12-29T16:01:34;33.33;;;16.08;;
74551;SDS011;63025;55.472;38.432;2022-12-29T16:04:05;46.03;;;20.55;;
74551;SDS011;63025;55.472;38.432;2022-12-29T16:06:36;49.10;;;22.75;;
74551;SDS011;63025;55.472;38.432;2022-12-29T16:11:37;77.13;;;32.33;;
74551;SDS011;63025;55.472;38.432;2022-12-29T16:14:09;71.53;;;29.30;;
74551;SDS011;63025;55.472;38.432;2022-12-29T16:16:41;73.65;;;31.67;;
74551;SDS011;63025;55.472;38.432;2022-12-29T16:24:41;38.28;;;17.02;;
74551;SDS011;63025;55.472;38.432;2022-12-29T16:27:28;45.75;;;22.73;;
74551;SDS011;63025;55.472;38.432;2022-12-29T16:30:06;40.25;;;17.58;;
74551;SDS011;63025;55.472;38.432;2022-12-29T16:32:49;57.08;;;25.42;;
74551;SDS011;63025;55.472;38.432;2022-12-29T16:35:21;40.30;;;18.48;;
74551;SDS011;63025;55.472;38.432;2022-12-29T16:46:16;54.30;;;26.10;;
74551;SDS011;63025;55.472;38.432;2022-12-29T16:48:47;43.80;;;21.63;;
74551;SDS011;63025;55.472;38.432;2022-12-29T16:51:40;42.15;;;20.70;;
74551;SDS011;63025;55.472;38.432;2022-12-29T16:54:05;35.83;;;18.10;;
74551;SDS011;63025;55.472;38.432;2022-12-29T16:56:33;40.15;;;20.27;;
74551;SDS011;63025;55.472;38.432;2022-12-29T16:59:03;56.65;;;26.20;;
74551;SDS011;63025;55.472;38.432;2022-12-29T17:01:35;51.83;;;24.42;;
74551;SDS011;63025;55.472;38.432;2022-12-29T17:04:05;44.42;;;22.52;;
74551;SDS011;63025;55.472;38.432;2022-12-29T17:06:33;45.30;;;22.50;;
74551;SDS011;63025;55.472;38.432;2022-12-29T17:08:59;39.20;;;18.80;;
74551;SDS011;63025;55.472;38.432;2022-12-29T17:11:28;33.67;;;17.02;;
74551;SDS011;63025;55.472;38.432;2022-12-29T17:14:19;36.55;;;17.58;;
74551;SDS011;63025;55.472;38.432;2022-12-29T17:19:47;42.50;;;19.10;;
74551;SDS011;63025;55.472;38.432;2022-12-29T17:22:16;38.70;;;18.92;;
74551;SDS011;63025;55.472;38.432;2022-12-29T17:24:50;32.42;;;15.38;;
74551;SDS011;63025;55.472;38.432;2022-12-29T17:27:27;28.85;;;14.52;;
74551;SDS011;63025;55.472;38.432;2022-12-29T17:30:12;25.38;;;13.95;;
74551;SDS011;63025;55.472;38.432;2022-12-29T17:32:41;30.70;;;15.90;;
74551;SDS011;63025;55.472;38.432;2022-12-29T17:35:15;28.60;;;15.15;;
74551;SDS011;63025;55.472;38.432;2022-12-29T17:37:42;34.05;;;14.73;;
74551;SDS011;63025;55.472;38.432;2022-12-29T17:40:16;28.15;;;14.95;;
74551;SDS011;63025;55.472;38.432;2022-12-29T17:42:51;28.95;;;13.40;;
74551;SDS011;63025;55.472;38.432;2022-12-29T17:45:20;27.58;;;12.70;;
74551;SDS011;63025;55.472;38.432;2022-12-29T17:47:50;24.77;;;12.85;;
74551;SDS011;63025;55.472;38.432;2022-12-29T17:50:17;27.17;;;12.65;;
74551;SDS011;63025;55.472;38.432;2022-12-29T17:52:46;25.30;;;12.43;;
74551;SDS011;63025;55.472;38.432;2022-12-29T17:55:17;28.33;;;12.77;;
74551;SDS011;63025;55.472;38.432;2022-12-29T17:57:44;24.50;;;12.50;;
74551;SDS011;63025;55.472;38.432;2022-12-29T18:00:18;24.48;;;10.93;;
74551;SDS011;63025;55.472;38.432;2022-12-29T18:02:48;23.08;;;10.60;;
74551;SDS011;63025;55.472;38.432;2022-12-29T18:07:54;26.30;;;11.73;;
74551;SDS011;63025;55.472;38.432;2022-12-29T18:10:25;25.20;;;11.57;;
74551;SDS011;63025;55.472;38.432;2022-12-29T18:12:54;29.92;;;12.43;;
74551;SDS011;63025;55.472;38.432;2022-12-29T18:15:24;25.58;;;12.10;;
74551;SDS011;63025;55.472;38.432;2022-12-29T18:18:11;21.65;;;11.05;;
74551;SDS011;63025;55.472;38.432;2022-12-29T18:20:58;26.38;;;11.68;;
74551;SDS011;63025;55.472;38.432;2022-12-29T18:23:25;28.65;;;12.18;;
74551;SDS011;63025;55.472;38.432;2022-12-29T18:26:03;25.55;;;12.13;;